Latest Weather Observations for Mount William

IDV60801

Issued at 8:03 am EDT Sunday 22 October 2017 (issued every 30 minutes, with the page automatically refreshed every 10 minutes)

About weather observations | Map of weather stations | Latest weather observations for VIC | Other Formats
Station Details ID: 079103 Name: MOUNT WILLIAM Lat: -37.30 Lon: 142.60 Height: 1150.0 m
Data from the previous 72 hours. | See also: Recent months at Mount William
Date/Time
EDT
Temp
°C
App
Temp
°C
Dew
Point
°C
Rel
Hum
%
Delta-T
°C
Wind Press
QNH
hPa
Press
MSL
hPa
Rain since
9am
mm
Dir  Spd
km/h
Gust
km/h
Spd
kts
Gust
kts
22/08:00am 2.8 -5.4 2.7 99 0.0 SW 35 50 19 27 - - 0.6
22/07:31am 2.4 -5.9 2.3 99 0.0 SW 35 54 19 29 - - 0.6
22/07:30am 2.4 -6.3 2.3 99 0.0 SW 37 54 20 29 - - 0.6
22/07:29am 2.4 -5.9 2.3 99 0.0 SW 35 54 19 29 - - 0.6
22/07:00am 2.6 -5.3 2.5 99 0.0 SW 33 46 18 25 - - 0.6
22/06:50am 2.5 -5.2 2.4 99 0.0 SW 32 50 17 27 - - 0.6
22/06:30am 2.6 -5.3 2.5 99 0.0 SW 33 43 18 23 - - 0.6
22/06:00am 2.5 -6.1 2.4 99 0.0 SW 37 44 20 24 - - 0.6
22/05:30am 2.4 -7.0 2.3 99 0.0 SW 41 54 22 29 - - 0.6
22/05:00am 2.1 -5.8 2.0 99 0.0 SW 33 46 18 25 - - 0.4
22/04:30am 2.5 -5.8 2.4 99 0.0 SW 35 46 19 25 - - 0.4
22/04:00am 2.5 -5.8 2.4 99 0.0 SW 35 44 19 24 - - 0.4
22/03:30am 2.5 -5.4 2.4 99 0.0 SW 33 43 18 23 - - 0.4
22/03:00am 2.7 -6.7 2.6 99 0.0 SW 41 52 22 28 - - 0.4
22/02:30am 2.6 -6.4 2.5 99 0.0 SW 39 56 21 30 - - 0.2
22/02:10am 2.8 -5.8 2.7 99 0.0 SW 37 59 20 32 - - 0.2
22/02:00am 2.7 -5.9 2.6 99 0.0 SW 37 54 20 29 - - 0.2
22/01:30am 2.5 -7.3 2.4 99 0.0 SW 43 57 23 31 - - 0.2
22/01:02am 2.6 -5.1 2.5 99 0.0 SW 32 50 17 27 - - 0.0
22/01:00am 2.6 -5.1 2.5 99 0.0 SW 32 48 17 26 - - 0.0
22/12:30am 2.6 -5.1 2.5 99 0.0 SW 32 44 17 24 - - 0.0
22/12:00am 2.7 -6.3 2.6 99 0.0 SW 39 50 21 27 - - 0.0
 
Date/Time
EDT
Temp
°C
App
Temp
°C
Dew
Point
°C
Rel
Hum
%
Delta-T
°C
Wind Press
QNH
hPa
Press
MSL
hPa
Rain since
9am
mm
Dir  Spd
km/h
Gust
km/h
Spd
kts
Gust
kts
21/11:30pm 2.3 -6.4 2.2 99 0.0 WSW 37 50 20 27 - - 0.0
21/11:00pm 2.5 -6.5 2.4 99 0.0 WSW 39 57 21 31 - - 0.0
21/10:57pm 2.5 -6.1 2.4 99 0.0 WSW 37 57 20 31 - - 0.0
21/10:30pm 2.8 -3.3 2.7 99 0.0 WSW 24 43 13 23 - - 0.0
21/10:00pm 2.9 -4.0 2.8 99 0.0 WSW 28 46 15 25 - - 0.0
21/09:53pm 3.1 -3.7 3.0 99 0.0 WSW 28 46 15 25 - - 0.0
21/09:30pm 3.5 -2.5 3.4 99 0.0 WSW 24 37 13 20 - - 0.0
21/09:00pm 3.3 -2.3 3.2 99 0.0 WSW 22 39 12 21 - - 0.0
21/08:30pm 3.5 -1.7 3.4 99 0.0 WSW 20 35 11 19 - - 0.0
21/08:00pm 4.0 -0.6 3.9 99 0.0 WSW 17 30 9 16 - - 0.0
21/07:30pm 4.0 -2.0 3.4 96 0.3 WSW 24 41 13 22 - - 0.0
21/07:00pm 4.5 -0.4 4.2 98 0.1 WSW 19 30 10 16 - - 0.0
21/06:30pm 5.1 0.4 5.0 99 0.0 WSW 19 33 10 18 - - 0.0
21/06:00pm 5.4 1.4 5.0 97 0.2 WSW 15 28 8 15 - - 0.0
21/05:30pm 5.2 0.1 4.3 94 0.4 WSW 20 35 11 19 - - 0.0
21/05:00pm 5.1 0.7 4.8 98 0.1 W 17 28 9 15 - - 0.0
21/04:30pm 6.2 1.8 4.7 90 0.7 W 17 28 9 15 - - 0.0
21/04:00pm 5.7 1.6 4.5 92 0.6 W 15 35 8 19 - - 0.0
21/03:30pm 5.5 0.5 4.5 93 0.5 SW 20 33 11 18 - - 0.0
21/03:00pm 5.0 0.0 4.7 98 0.1 WSW 20 37 11 20 - - 0.0
21/02:30pm 5.2 0.4 4.9 98 0.1 SW 19 35 10 19 - - 0.0
21/02:00pm 5.2 1.6 4.9 98 0.1 SW 13 30 7 16 - - 0.0
21/01:30pm 4.8 0.8 4.7 99 0.0 W 15 33 8 18 - - 0.0
21/01:00pm 4.5 0.4 4.4 99 0.0 WSW 15 26 8 14 - - 0.0
21/12:30pm 4.3 -0.6 4.2 99 0.0 WSW 19 30 10 16 - - 0.0
21/12:00pm 4.0 0.6 3.9 99 0.0 WSW 11 24 6 13 - - 0.0
21/11:30am 3.7 -1.3 3.6 99 0.0 SW 19 32 10 17 - - 0.0
21/11:00am 3.3 -1.8 3.2 99 0.0 WSW 19 28 10 15 - - 0.0
21/10:30am 3.2 -2.1 3.1 99 0.0 SW 20 32 11 17 - - 0.0
21/10:00am 2.8 -2.9 2.7 99 0.0 SW 22 35 12 19 - - 0.0
21/09:30am 2.8 -1.6 2.7 99 0.0 SW 15 35 8 19 - - 0.0
21/09:00am 2.4 -3.0 2.3 99 0.0 SW 20 37 11 20 - - 0.0
21/08:30am 2.0 -5.4 1.9 99 0.0 SW 30 43 16 23 - - 0.0
21/08:00am 1.8 -5.2 1.7 99 0.0 SW 28 46 15 25 - - 0.0
21/07:56am 1.7 -5.4 1.6 99 0.0 SW 28 46 15 25 - - 0.0
21/07:30am 1.6 -4.7 1.5 99 0.0 SW 24 41 13 22 - - 0.0
21/07:00am 1.5 -5.2 1.4 99 0.0 SW 26 43 14 23 - - 0.0
21/06:30am 1.2 -4.4 1.1 99 0.0 SW 20 32 11 17 - - 0.0
21/06:00am 1.3 -5.1 1.2 99 0.0 SW 24 33 13 18 - - 0.0
21/05:30am 1.2 -4.4 1.1 99 0.0 SSW 20 32 11 17 - - 0.0
21/05:00am 1.0 -4.1 0.9 99 0.0 SSW 17 22 9 12 - - 0.0
21/04:30am 1.0 -4.5 0.9 99 0.0 SSW 19 28 10 15 - - 0.0
21/04:00am 1.1 -6.4 1.0 99 0.0 S 30 39 16 21 - - 0.0
21/03:30am 2.5 -6.6 -0.6 80 1.2 S 37 48 20 26 - - 0.0
21/03:00am 4.9 -3.7 -2.2 60 2.8 SSW 33 46 18 25 - - 0.0
21/02:30am 3.5 -6.3 -0.1 77 1.5 SSW 41 56 22 30 - - 0.0
21/02:00am 3.5 -5.3 -1.3 71 1.9 SSW 35 46 19 25 - - 0.0
21/01:30am 2.1 -6.5 0.2 87 0.8 SSW 35 50 19 27 - - 0.0
21/01:00am 2.6 -6.1 -0.2 82 1.1 SSW 35 46 19 25 - - 0.0
21/12:30am 4.5 -4.7 -1.5 65 2.4 SSW 37 48 20 26 - - 0.0
21/12:00am 3.7 -5.5 -1.1 71 1.9 SSW 37 50 20 27 - - 0.0
 
Date/Time
EDT
Temp
°C
App
Temp
°C
Dew
Point
°C
Rel
Hum
%
Delta-T
°C
Wind Press
QNH
hPa
Press
MSL
hPa
Rain since
9am
mm
Dir  Spd
km/h
Gust
km/h
Spd
kts
Gust
kts
20/11:30pm 1.1 -9.1 1.0 99 0.0 S 44 56 24 30 - - 0.0
20/11:00pm 0.8 -10.6 0.7 99 0.0 S 50 57 27 31 - - 0.0
20/10:30pm 0.9 -10.5 0.8 99 0.0 S 50 56 27 30 - - 0.0
20/10:00pm 1.1 -10.6 1.0 99 0.0 S 52 61 28 33 - - 0.0
20/09:30pm 1.5 -10.1 1.4 99 0.0 SSW 52 61 28 33 - - 0.0
20/09:00pm 1.5 -9.8 1.4 99 0.0 SSW 50 59 27 32 - - 0.0
20/08:30pm 1.6 -9.7 1.5 99 0.0 SSW 50 61 27 33 - - 0.0
20/08:00pm 2.0 -8.4 1.9 99 0.0 SSW 46 61 25 33 - - 0.0
20/07:30pm 2.1 -7.9 2.0 99 0.0 SSW 44 54 24 29 - - 0.0
20/07:00pm 2.6 -7.2 2.2 97 0.2 SSW 43 56 23 30 - - 0.0
20/06:30pm 3.8 -5.6 2.6 92 0.5 SSW 41 56 22 30 - - 0.0
20/06:00pm 4.2 -5.1 2.9 91 0.6 SSW 41 54 22 29 - - 0.0
20/05:30pm 5.3 -4.0 3.2 86 0.9 SW 41 57 22 31 - - 0.0
20/05:00pm 6.1 -2.4 3.3 82 1.3 SSW 37 52 20 28 - - 0.0
20/04:39pm 6.2 -1.8 3.7 84 1.1 SW 35 54 19 29 - - 0.0
20/04:30pm 6.7 -1.2 4.2 84 1.2 SW 35 50 19 27 - - 0.0
20/04:00pm 6.5 -1.1 3.7 82 1.3 SSW 33 48 18 26 - - 0.0
20/03:30pm 7.3 0.7 4.1 80 1.5 SSW 28 43 15 23 - - 0.0
20/03:00pm 6.9 0.1 3.3 78 1.6 SW 28 44 15 24 - - 0.0
20/02:33pm 7.0 -0.1 3.4 78 1.6 SW 30 50 16 27 - - 0.0
20/02:30pm 7.1 -0.6 3.3 77 1.7 SW 33 50 18 27 - - 0.0
20/02:00pm 6.7 -0.6 2.6 75 1.8 SW 30 44 16 24 - - 0.0
20/01:30pm 6.1 -0.3 3.1 81 1.3 SW 26 44 14 24 - - 0.0
20/01:00pm 5.0 -1.0 3.2 88 0.8 SW 24 43 13 23 - - 0.0
20/12:30pm 4.9 -0.7 3.4 90 0.7 SW 22 43 12 23 - - 0.0
20/12:00pm 4.0 -1.5 3.9 99 0.0 SW 22 37 12 20 - - 0.0
20/11:30am 3.8 -2.5 3.7 99 0.0 SW 26 43 14 23 - - 0.0
20/11:13am 4.3 -2.4 3.7 96 0.3 SW 28 52 15 28 - - 0.0
20/11:00am 3.5 -4.3 3.1 97 0.2 SW 33 46 18 25 - - 0.0
20/10:33am 4.0 -3.9 2.5 90 0.6 SSW 33 54 18 29 - - 0.0
20/10:30am 3.8 -4.1 2.2 89 0.7 SW 33 52 18 28 - - 0.0
20/10:15am 4.4 -2.8 2.8 89 0.7 SW 30 48 16 26 - - 0.0
20/10:00am 3.7 -4.5 2.5 92 0.5 SSW 35 52 19 28 - - 0.0
20/09:41am 3.3 -3.6 2.6 95 0.3 SW 28 50 15 27 - - 0.0
20/09:30am 3.0 -4.7 2.3 95 0.3 SW 32 46 17 25 - - 0.0
20/09:00am 2.6 -6.2 1.4 92 0.5 SSW 37 56 20 30 - - 0.8
20/08:33am 2.7 -5.0 2.4 98 0.1 SW 32 50 17 27 - - 0.8
20/08:30am 2.7 -5.0 2.4 98 0.1 SW 32 48 17 26 - - 0.8
20/08:00am 2.0 -6.3 1.9 99 0.0 SW 35 54 19 29 - - 0.8
20/07:30am 1.4 -6.7 1.3 99 0.0 SW 33 56 18 30 - - 0.8
20/07:00am 1.4 -7.8 1.3 99 0.0 SW 39 63 21 34 - - 0.8
20/06:33am 1.2 -8.8 1.1 99 0.0 SW 43 65 23 35 - - 0.8
20/06:30am 1.2 -8.8 1.1 99 0.0 SW 43 57 23 31 - - 0.8
20/06:00am 1.7 -8.2 1.6 99 0.0 SW 43 61 23 33 - - 0.8
20/05:30am 2.0 -8.0 1.9 99 0.0 SW 44 67 24 36 - - 0.8
20/05:00am 2.1 -7.4 2.0 99 0.0 SW 41 63 22 34 - - 0.8
20/04:35am 2.2 -7.2 2.1 99 0.0 SW 41 59 22 32 - - 0.8
20/04:30am 2.4 -7.0 2.3 99 0.0 SW 41 57 22 31 - - 0.8
20/04:00am 2.7 -6.3 2.6 99 0.0 SW 39 56 21 30 - - 0.8
20/03:34am 2.8 -5.4 2.7 99 0.0 SW 35 54 19 29 - - 0.8
20/03:30am 2.8 -6.2 2.7 99 0.0 SW 39 56 21 30 - - 0.8
20/03:00am 3.1 -4.1 3.0 99 0.0 SW 30 59 16 32 - - 0.8
20/02:30am 3.9 -2.8 3.8 99 0.0 WSW 28 48 15 26 - - 0.6
20/02:00am 3.8 -4.6 3.7 99 0.0 WSW 37 59 20 32 - - 0.0
20/01:36am 3.6 -4.5 3.5 99 0.0 WSW 35 54 19 29 - - 0.0
20/01:30am 3.5 -5.0 3.4 99 0.0 WSW 37 54 20 29 - - 0.0
20/01:00am 3.6 -4.1 3.5 99 0.0 WSW 33 52 18 28 - - 0.0
20/12:35am 3.3 -4.2 3.2 99 0.0 WSW 32 54 17 29 - - 0.0
20/12:30am 3.4 -4.1 3.3 99 0.0 WSW 32 50 17 27 - - 0.0
20/12:01am 3.5 -4.0 3.4 99 0.0 WSW 32 50 17 27 - - 0.0
20/12:00am 3.5 -4.2 3.4 99 0.0 WSW 33 50 18 27 - - 0.0
 
Date/Time
EDT
Temp
°C
App
Temp
°C
Dew
Point
°C
Rel
Hum
%
Delta-T
°C
Wind Press
QNH
hPa
Press
MSL
hPa
Rain since
9am
mm
Dir  Spd
km/h
Gust
km/h
Spd
kts
Gust
kts
19/11:52pm 3.5 -3.2 3.4 99 0.0 WSW 28 50 15 27 - - 0.0
19/11:30pm 3.8 -1.8 3.7 99 0.0 WSW 22 43 12 23 - - 0.0
19/11:02pm 3.7 -3.0 3.6 99 0.0 W 28 52 15 28 - - 0.0
19/11:00pm 3.7 -2.6 3.6 99 0.0 W 26 52 14 28 - - 0.0
19/10:30pm 4.2 -0.9 4.1 99 0.0 W 20 35 11 19 - - 0.0
19/10:00pm 4.7 -0.7 4.6 99 0.0 WSW 22 39 12 21 - - 0.0
19/09:30pm 5.1 0.7 5.0 99 0.0 WSW 17 28 9 15 - - 0.0
19/09:00pm 5.0 -1.1 4.6 97 0.2 WSW 26 50 14 27 - - 0.0
19/08:31pm 5.6 -2.1 5.5 99 0.0 WSW 35 54 19 29 - - 0.0
19/08:30pm 5.7 -2.3 5.6 99 0.0 WSW 37 54 20 29 - - 0.0
19/08:16pm 5.9 -1.3 5.8 99 0.0 WSW 33 54 18 29 - - 0.0
19/08:00pm 6.2 -1.7 6.1 99 0.0 WSW 37 52 20 28 - - 0.0
19/07:30pm 6.8 -1.4 6.4 97 0.2 WSW 39 48 21 26 - - 0.0
19/07:00pm 8.0 -0.9 5.3 83 1.3 WSW 41 54 22 29 - - 0.0
19/06:30pm 7.7 -2.8 3.9 77 1.8 WSW 48 65 26 35 - - 0.0
19/06:02pm 8.6 1.2 6.9 89 0.8 WSW 35 56 19 30 - - 0.0
19/06:00pm 8.6 1.2 6.9 89 0.8 WSW 35 50 19 27 - - 0.0
19/05:30pm 9.7 3.8 8.9 95 0.4 WSW 30 48 16 26 - - 0.0
19/05:18pm 9.9 4.4 9.1 95 0.4 WSW 28 48 15 26 - - 0.0
19/05:00pm 10.4 6.3 10.2 99 0.1 WSW 22 41 12 22 - - 0.0
19/04:30pm 10.9 6.6 10.6 98 0.2 WSW 24 37 13 20 - - 0.0
19/04:00pm 11.6 10.0 11.4 99 0.1 W 11 24 6 13 - - 0.0
19/03:30pm 12.6 10.5 12.4 99 0.1 WSW 15 28 8 15 - - 0.0
19/03:00pm 13.4 10.4 12.5 94 0.5 W 20 35 11 19 - - 0.0
19/02:30pm 13.3 10.3 12.7 96 0.3 W 20 32 11 17 - - 0.0
19/02:00pm 12.9 9.6 12.7 99 0.1 W 22 41 12 22 - - 0.0
19/01:30pm 12.4 8.2 12.4 100 0.0 W 26 52 14 28 - - 0.0
19/01:00pm 12.2 7.6 12.2 100 0.0 W 28 46 15 25 - - 0.0
19/12:54pm 12.2 7.6 12.2 100 0.0 W 28 46 15 25 - - 0.0
19/12:30pm 12.4 7.8 12.4 100 0.0 W 28 43 15 23 - - 0.0
19/12:14pm 12.4 7.8 12.4 100 0.0 W 28 46 15 25 - - 0.0
19/12:00pm 12.6 7.3 12.4 99 0.1 W 32 46 17 25 - - 0.0
19/11:33am 13.1 8.3 12.9 99 0.1 W 30 48 16 26 - - 0.0
19/11:30am 12.9 8.0 12.7 99 0.1 W 30 43 16 23 - - 0.0
19/11:00am 12.9 7.4 12.6 98 0.2 W 33 44 18 24 - - 0.0
19/10:41am 12.6 7.1 12.4 99 0.1 W 33 54 18 29 - - 0.0
19/10:30am 12.8 6.5 12.3 97 0.3 W 37 50 20 27 - - 0.0
19/10:00am 13.4 8.1 12.5 94 0.5 W 32 46 17 25 - - 0.0
19/09:30am 13.3 8.6 13.1 99 0.1 W 30 43 16 23 - - 0.0
19/09:00am 12.8 7.6 12.8 100 0.0 W 32 44 17 24 - - 5.2
19/08:30am 12.9 9.3 12.9 100 0.0 W 24 33 13 18 - - 5.2

Other Formats:

Comma delimited format used in spreadsheet applications
http://www.bom.gov.au/fwo/IDV60801/IDV60801.94833.axf

JavaScript Object Notation format (JSON) in row-major order
http://www.bom.gov.au/fwo/IDV60801/IDV60801.94833.json